Terminal Aerodrome Forecast
Issued by NWS Paducah, KY

Home | Current Version | Previous Version | Graphics & Text | Print | Product List | Glossary On
Versions: 1 2 3 4 5 6 7 8 9 10 11 12 13 14
946
FTUS43 KPAH 261721
TAFEVV
TAF
KEVV 261721Z 2618/2718 17007KT P6SM FEW120 BKN200
     FM270600 13003KT 6SM -RA SCT020 OVC060
     FM271200 15005KT P6SM SCT015 OVC025=

USA.gov is the U.S. government's official web portal to all federal, state and local government web resources and services.